Decoded Metar for EIWF (WATERFORD in IRELAND) (IATA:WAT) | Meteo·Mobile Aviation Weather
aviador You're here:

EIWF Decoded Metar

WATERFORD in IRELAND
Report Time2018-10-19 08:00:00
UTC Time2018-10-19 08:37:41
Flight Rules mvfr MVFR
Wind250° at 06 kt
W.Decomp.*RWY 21: 4.3 kt HW 4.2 kt RCW
W.Rank250° ranks 5
Current wind is below 250° avg. (10.1)
Visibility9999 m
Phenomena:N/A
Clouds:Broken 015 Hf
Expected CloudBase > 400 ft AGL from Temp-Dew spread
Ceiling1,500 ft
Temp12°C (ISA -3)
Dew Point11°C (94% RH)
AAT10.2°C
QNH1025 hPa
Density Alt-440 ft
Elevation118 ft
Report Wrong Elevation
Raw Report
METAR EIWF 190800Z 25006KT 220V280 9999 BKN015 12/11 Q1025=

Extra information for EIWF:More info

Metar Taf Metar & Taf Last 4 Metars F.Rules Stats Wind Profile Meteogram Temp Stats Airport Information Weather charts Add Link Nearby VenuesMetar ALERT Operation Metar Decoded Social comments